Abell, Maryland
Current Conditions -  °F | °C
As of 3:35 PM on Friday 28 Nov 2014 (Local Time) from K2W6 Reporting Station
Scattered Clouds Scattered Clouds  
Wind Chill: 31°   Ceiling: Unl
Heat Index: 37°   Visibility: 10mi
Dew Point: 19°   Wind: 8mph
Humidity: 48%   Direction: 280°W
Pressure: 30.29"   Gusts: NA
Location:  38.25°N, 76.74°W
Report Text: K2W6 282035Z AUTO 28007KT 10SM SCT049 03/M07 A3029 RMK AO1
Loading
Personal Weather Stations






























Interactive Weather Map New forecast layout! Learn more

10-Day Weather Forecast

Advertisements
Track Severe Weather on mobile